• Join FlightAware (Why Join?)
  • Login
  • US Flag 
06:12AM EST


 

Airport Tracker/Info


-or-


 

Live Flight TrackerFlight Track Log ✈ C-FRLW ✈ 08-Oct-2013 ✈ CYWG - CYQR

Flight Track Log - Related Links

Times and Time Zones

All times are in EDT time to prevent confusion due to time zone crossing. See the C-FRLW flight status page for this flight to view local times or setup timezone preferences in your user account.

Time Position Orientation Groundspeed Altitude Reporting Facility
EDT Latitude Longitude Course Direction KTS MPH feet Rate Location/Type
01:58PM 49.8833 -97.2333 278° West 40 46 1,000  Level Winnipeg Center
01:59PM 49.8500 -97.2500 198° South 110 127 1,800 840 Climbing Winnipeg Center
02:00PM 49.8500 -97.2833 270° West 110 127 2,700 900 Climbing Winnipeg Center
02:01PM 49.8500 -97.3333 270° West 120 138 3,600 900 Climbing Winnipeg Center
02:02PM 49.8667 -97.3833 297° West 110 127 4,600 780 Climbing Winnipeg Center
02:03PM 49.8833 -97.4333 297° West 130 150 5,200 720 Climbing Winnipeg Center
02:04PM 49.9609 -97.7385 279° West  Level Estimated
02:04PM 49.8833 -97.4833 270° West 130 150 6,100  Level Winnipeg Center
02:05PM 49.9670 -97.8108 278° West  Level FlightAware Approximate
02:05PM 49.9000 -97.5333 297° West 130 150 7,000  Level Winnipeg Center
02:06PM 49.9167 -97.5833 297° West 130 150 7,800 840 Climbing Winnipeg Center
02:07PM 49.9167 -97.6333 270° West 130 150 8,700 780 Climbing Winnipeg Center
02:08PM 49.9333 -97.7000 291° West 130 150 9,400 660 Climbing Winnipeg Center
02:09PM 49.9333 -97.7500 270° West 140 161 10,100 300 Climbing Winnipeg Center
02:10PM 49.9500 -97.8167 291° West 160 184 10,000 -60 Descending Winnipeg Center
02:11PM 49.9500 -97.9000 270° West 170 196 10,000  Level Winnipeg Center
02:12PM 49.9500 -97.9833 270° West 170 196 10,000  Level Winnipeg Center
02:13PM 49.9500 -98.0500 270° West 170 196 10,000  Level Winnipeg Center
02:14PM 49.9500 -98.1167 270° West 180 207 10,000  Level Winnipeg Center
02:15PM 49.9667 -98.1833 291° West 180 207 10,000  Level Winnipeg Center
02:16PM 49.9667 -98.2667 270° West 180 207 10,000  Level Winnipeg Center
02:17PM 49.9833 -98.3500 287° West 180 207 10,000  Level Winnipeg Center
02:18PM 49.9833 -98.4167 270° West 180 207 10,000  Level Winnipeg Center
02:19PM 50.0000 -98.5000 287° West 180 207 10,000  Level Winnipeg Center
02:20PM 50.0000 -98.5833 270° West 180 207 10,000  Level Winnipeg Center
02:21PM 50.0167 -98.6500 291° West 180 207 10,000  Level Winnipeg Center
02:22PM 50.0333 -98.7333 287° West 180 207 10,000  Level Winnipeg Center
02:23PM 50.0333 -98.8167 270° West 180 207 10,000  Level Winnipeg Center
02:24PM 50.0500 -98.8667 297° West 180 207 10,000  Level Winnipeg Center
02:25PM 50.0500 -98.9500 270° West 180 207 10,000  Level Winnipeg Center
02:26PM 50.0667 -99.0167 291° West 180 207 10,000  Level Winnipeg Center
02:27PM 50.0833 -99.1000 287° West 180 207 10,000  Level Winnipeg Center
02:28PM 50.0833 -99.1833 270° West 180 207 10,000  Level Winnipeg Center
02:29PM 50.0833 -99.2667 270° West 180 207 10,000  Level Winnipeg Center
02:30PM 50.0833 -99.3333 270° West 170 196 10,000  Level Winnipeg Center
02:31PM 50.1000 -99.4167 287° West 170 196 10,000  Level Winnipeg Center
02:32PM 50.1000 -99.4667 270° West 170 196 10,000  Level Winnipeg Center
02:33PM 50.1167 -99.5500 287° West 170 196 10,000  Level Winnipeg Center
02:34PM 50.1167 -99.6333 270° West 170 196 10,000  Level Winnipeg Center
02:35PM 50.1333 -99.7000 291° West 170 196 10,000  Level Winnipeg Center
02:36PM 50.1333 -99.7833 270° West 170 196 10,000  Level Winnipeg Center
02:37PM 50.1500 -99.8667 287° West 170 196 10,000  Level Winnipeg Center
02:38PM 50.1500 -99.9167 270° West 170 196 10,000  Level Winnipeg Center
02:39PM 50.1500 -100.0000 270° West 160 184 10,000  Level Winnipeg Center
02:40PM 50.1500 -100.0667 270° West 160 184 10,000  Level Winnipeg Center
02:41PM 50.1500 -100.1333 270° West 160 184 10,000  Level Winnipeg Center
02:42PM 50.1667 -100.2000 291° West 160 184 10,000  Level Winnipeg Center
02:43PM 50.1667 -100.2833 270° West 160 184 10,000  Level Winnipeg Center
02:44PM 50.1667 -100.3667 270° West 160 184 10,000  Level Winnipeg Center
02:45PM 50.1833 -100.4167 298° West 160 184 10,000  Level Winnipeg Center
02:46PM 50.1833 -100.5000 270° West 160 184 10,000  Level Winnipeg Center
02:47PM 50.1667 -100.5667 249° West 160 184 10,000  Level Winnipeg Center
02:48PM 50.1833 -100.6333 291° West 160 184 10,000  Level Winnipeg Center
02:49PM 50.1833 -100.7000 270° West 160 184 10,000  Level Winnipeg Center
02:50PM 50.2000 -100.7500 298° West 160 184 10,000  Level Winnipeg Center
02:51PM 50.2000 -100.8333 270° West 160 184 10,000  Level Winnipeg Center
02:52PM 50.2000 -100.8833 270° West 160 184 10,000  Level Winnipeg Center
02:53PM 50.2167 -100.9667 287° West 150 173 10,000  Level Winnipeg Center
02:54PM 50.2333 -101.0167 298° West 150 173 10,000  Level Winnipeg Center
02:55PM 50.2167 -101.1000 253° West 150 173 10,000  Level Winnipeg Center
02:56PM 50.2333 -101.1500 298° West 150 173 10,000  Level Winnipeg Center
02:57PM 50.2333 -101.2333 270° West 150 173 10,000  Level Winnipeg Center
02:58PM 50.2500 -101.3167 287° West 160 184 10,000  Level Winnipeg Center
02:59PM 50.2500 -101.3667 270° West 160 184 10,000  Level Winnipeg Center
03:00PM 50.2667 -101.4167 298° West 160 184 10,000  Level Winnipeg Center
03:01PM 50.2667 -101.5000 270° West 150 173 10,000  Level Winnipeg Center
03:02PM 50.2667 -101.5500 270° West 150 173 10,000  Level Winnipeg Center
03:03PM 50.2667 -101.6333 270° West 150 173 10,000  Level Winnipeg Center
03:06PM 50.2723 -101.7162 276° West  Level FlightAware Approximate
03:09PM 50.2833 -102.0000 276° West 140 161 10,000  Level Winnipeg Center
03:10PM 50.3000 -102.0500 298° West 140 161 10,000  Level Winnipeg Center
03:11PM 50.3000 -102.1000 270° West 140 161 10,000  Level Winnipeg Center
03:12PM 50.3000 -102.1500 270° West 150 173 10,000  Level Winnipeg Center
03:13PM 50.3032 -102.1867 276° West  Level FlightAware Approximate
03:13PM 50.3167 -102.2333 287° West 150 173 10,000  Level Winnipeg Center
03:14PM 50.3074 -102.2539 276° West  Level FlightAware Approximate
03:14PM 50.3000 -102.3167 253° West 150 173 10,000  Level Winnipeg Center
03:15PM 50.3116 -102.3212 276° West  Level FlightAware Approximate
03:15PM 50.3167 -102.3667 298° West 160 184 10,000  Level Winnipeg Center
03:16PM 50.3167 -102.4500 270° West 160 184 10,000  Level Winnipeg Center
03:17PM 50.3167 -102.5000 270° West 150 173 10,000  Level Winnipeg Center
03:18PM 50.3333 -102.5833 287° West 160 184 10,000  Level Winnipeg Center
03:19PM 50.3333 -102.6333 270° West 160 184 10,000  Level Winnipeg Center
03:20PM 50.3333 -102.7167 270° West 160 184 10,000  Level Winnipeg Center
03:21PM 50.3333 -102.7833 270° West 160 184 10,000  Level Winnipeg Center
03:22PM 50.3500 -102.8500 291° West 160 184 10,000  Level Winnipeg Center
03:23PM 50.3500 -102.9167 270° West 160 184 10,000  Level Winnipeg Center
03:24PM 50.3333 -103.0000 253° West 160 184 10,000  Level Winnipeg Center
03:25PM 50.3333 -103.0500 270° West 160 184 10,000  Level Winnipeg Center
03:26PM 50.3500 -103.1333 287° West 160 184 10,000  Level Winnipeg Center
03:27PM 50.3500 -103.2167 270° West 160 184 10,000  Level Winnipeg Center
03:28PM 50.3667 -103.2667 298° West 160 184 10,000  Level Winnipeg Center
03:29PM 50.3500 -103.3500 253° West 160 184 10,000  Level Winnipeg Center
03:30PM 50.3500 -103.4000 270° West 160 184 10,000  Level Winnipeg Center
03:31PM 50.3667 -103.4833 287° West 160 184 10,000  Level Winnipeg Center
03:32PM 50.3667 -103.5500 270° West 160 184 10,000  Level Winnipeg Center
03:33PM 50.3500 -103.6000 242° Southwest 160 184 10,000 -60 Level Winnipeg Center
03:34PM 50.3667 -103.6833 287° West 160 184 9,900 -300 Descending Winnipeg Center
03:35PM 50.3667 -103.7667 270° West 170 196 9,400 -540 Descending Winnipeg Center
03:36PM 50.3667 -103.8500 270° West 180 207 8,900 -540 Descending Winnipeg Center
03:37PM 50.3667 -103.9167 270° West 180 207 8,400 -540 Descending Winnipeg Center
03:38PM 50.3833 -104.0000 287° West 180 207 7,900 -600 Descending Winnipeg Center
03:39PM 50.3833 -104.0833 270° West 180 207 7,300 -660 Descending Winnipeg Center
03:40PM 50.4000 -104.1333 298° West 180 207 6,600 -600 Descending Winnipeg Center
03:41PM 50.3833 -104.2167 253° West 180 207 6,100 -540 Descending Winnipeg Center
03:42PM 50.4000 -104.3000 287° West 180 207 5,600 -600 Descending Winnipeg Center
03:43PM 50.4000 -104.3833 270° West 170 196 5,000 -600 Descending Winnipeg Center
03:44PM 50.4000 -104.4500 270° West 170 196 4,400 -600 Descending Winnipeg Center
03:45PM 50.4000 -104.5333 270° West 160 184 3,900 -600 Descending Winnipeg Center
03:46PM 50.4167 -104.5833 298° West 140 161 3,300 -660 Descending Winnipeg Center
03:47PM 50.4167 -104.6500 270° West 100 115 2,600 -600 Descending Winnipeg Center
03:48PM 50.4000 -104.6667 213° Southwest 80 92 2,100 -540 Descending Winnipeg Center